sensor_id;sensor_type;location;lat;lon;timestamp;P1;durP1;ratioP1;P2;durP2;ratioP2
30519;SDS011;17300;50.374;8.006;2023-04-04T00:01:54;1.87;;;1.20;;
30519;SDS011;17300;50.374;8.006;2023-04-04T00:04:21;1.77;;;1.23;;
30519;SDS011;17300;50.374;8.006;2023-04-04T00:06:48;2.17;;;1.40;;
30519;SDS011;17300;50.374;8.006;2023-04-04T00:09:15;3.17;;;1.40;;
30519;SDS011;17300;50.374;8.006;2023-04-04T00:11:44;1.50;;;1.20;;
30519;SDS011;17300;50.374;8.006;2023-04-04T00:14:10;2.50;;;1.20;;
30519;SDS011;17300;50.374;8.006;2023-04-04T00:16:37;2.50;;;1.30;;
30519;SDS011;17300;50.374;8.006;2023-04-04T00:19:04;2.07;;;1.20;;
30519;SDS011;17300;50.374;8.006;2023-04-04T00:21:31;2.80;;;1.40;;
30519;SDS011;17300;50.374;8.006;2023-04-04T00:23:58;1.67;;;1.30;;
30519;SDS011;17300;50.374;8.006;2023-04-04T00:26:25;1.60;;;1.33;;
30519;SDS011;17300;50.374;8.006;2023-04-04T00:28:53;2.80;;;1.37;;
30519;SDS011;17300;50.374;8.006;2023-04-04T00:31:20;2.30;;;1.20;;
30519;SDS011;17300;50.374;8.006;2023-04-04T00:33:47;2.53;;;1.60;;
30519;SDS011;17300;50.374;8.006;2023-04-04T00:36:13;1.40;;;1.00;;
30519;SDS011;17300;50.374;8.006;2023-04-04T00:38:41;2.57;;;0.97;;
30519;SDS011;17300;50.374;8.006;2023-04-04T00:41:08;1.73;;;1.00;;
30519;SDS011;17300;50.374;8.006;2023-04-04T00:43:36;1.43;;;1.00;;
30519;SDS011;17300;50.374;8.006;2023-04-04T00:46:05;3.23;;;1.10;;
30519;SDS011;17300;50.374;8.006;2023-04-04T00:48:34;1.83;;;1.10;;
30519;SDS011;17300;50.374;8.006;2023-04-04T00:51:02;2.43;;;1.30;;
30519;SDS011;17300;50.374;8.006;2023-04-04T00:53:28;1.13;;;1.00;;
30519;SDS011;17300;50.374;8.006;2023-04-04T00:55:56;4.37;;;1.30;;
30519;SDS011;17300;50.374;8.006;2023-04-04T00:58:22;1.70;;;1.20;;
30519;SDS011;17300;50.374;8.006;2023-04-04T01:00:51;1.73;;;0.90;;
30519;SDS011;17300;50.374;8.006;2023-04-04T01:03:19;1.40;;;1.13;;
30519;SDS011;17300;50.374;8.006;2023-04-04T01:05:46;1.97;;;1.30;;
30519;SDS011;17300;50.374;8.006;2023-04-04T01:08:12;1.37;;;1.00;;
30519;SDS011;17300;50.374;8.006;2023-04-04T01:10:44;2.67;;;1.10;;
30519;SDS011;17300;50.374;8.006;2023-04-04T01:13:12;1.57;;;1.03;;
30519;SDS011;17300;50.374;8.006;2023-04-04T01:15:40;2.30;;;1.20;;
30519;SDS011;17300;50.374;8.006;2023-04-04T01:18:07;1.10;;;0.90;;
30519;SDS011;17300;50.374;8.006;2023-04-04T01:20:39;1.50;;;1.10;;
30519;SDS011;17300;50.374;8.006;2023-04-04T01:23:12;2.93;;;1.00;;
30519;SDS011;17300;50.374;8.006;2023-04-04T01:25:40;1.33;;;1.10;;
30519;SDS011;17300;50.374;8.006;2023-04-04T01:28:08;2.73;;;1.20;;
30519;SDS011;17300;50.374;8.006;2023-04-04T01:30:35;3.40;;;1.53;;
30519;SDS011;17300;50.374;8.006;2023-04-04T01:33:05;1.47;;;1.23;;
30519;SDS011;17300;50.374;8.006;2023-04-04T01:35:39;1.43;;;1.10;;
30519;SDS011;17300;50.374;8.006;2023-04-04T01:38:24;1.40;;;1.17;;
30519;SDS011;17300;50.374;8.006;2023-04-04T01:41:01;2.33;;;1.00;;
30519;SDS011;17300;50.374;8.006;2023-04-04T01:43:31;1.07;;;0.97;;
30519;SDS011;17300;50.374;8.006;2023-04-04T01:45:58;2.10;;;0.90;;
30519;SDS011;17300;50.374;8.006;2023-04-04T01:48:25;1.97;;;1.03;;
30519;SDS011;17300;50.374;8.006;2023-04-04T01:50:52;2.73;;;1.53;;
30519;SDS011;17300;50.374;8.006;2023-04-04T01:53:19;1.00;;;0.93;;
30519;SDS011;17300;50.374;8.006;2023-04-04T01:55:46;2.03;;;1.30;;
30519;SDS011;17300;50.374;8.006;2023-04-04T01:58:14;1.87;;;1.10;;
30519;SDS011;17300;50.374;8.006;2023-04-04T02:00:41;1.97;;;1.03;;
30519;SDS011;17300;50.374;8.006;2023-04-04T02:03:07;2.00;;;1.10;;
30519;SDS011;17300;50.374;8.006;2023-04-04T02:05:34;1.87;;;1.23;;
30519;SDS011;17300;50.374;8.006;2023-04-04T02:08:01;1.10;;;1.00;;
30519;SDS011;17300;50.374;8.006;2023-04-04T02:10:28;1.43;;;1.10;;
30519;SDS011;17300;50.374;8.006;2023-04-04T02:12:55;1.30;;;1.17;;
30519;SDS011;17300;50.374;8.006;2023-04-04T02:15:23;3.20;;;1.03;;
30519;SDS011;17300;50.374;8.006;2023-04-04T02:17:50;2.13;;;1.20;;
30519;SDS011;17300;50.374;8.006;2023-04-04T02:20:17;2.60;;;1.20;;
30519;SDS011;17300;50.374;8.006;2023-04-04T02:22:49;2.23;;;1.40;;
30519;SDS011;17300;50.374;8.006;2023-04-04T02:25:17;1.30;;;1.10;;
30519;SDS011;17300;50.374;8.006;2023-04-04T02:27:44;1.60;;;1.10;;
30519;SDS011;17300;50.374;8.006;2023-04-04T02:30:11;2.43;;;1.17;;
30519;SDS011;17300;50.374;8.006;2023-04-04T02:32:39;1.80;;;1.40;;
30519;SDS011;17300;50.374;8.006;2023-04-04T02:35:06;2.00;;;1.10;;
30519;SDS011;17300;50.374;8.006;2023-04-04T02:37:33;2.03;;;1.37;;
30519;SDS011;17300;50.374;8.006;2023-04-04T02:40:00;1.37;;;1.17;;
30519;SDS011;17300;50.374;8.006;2023-04-04T02:42:27;1.90;;;1.10;;
30519;SDS011;17300;50.374;8.006;2023-04-04T02:44:54;1.83;;;1.20;;
30519;SDS011;17300;50.374;8.006;2023-04-04T02:47:20;2.70;;;1.30;;
30519;SDS011;17300;50.374;8.006;2023-04-04T02:49:48;1.80;;;1.30;;
30519;SDS011;17300;50.374;8.006;2023-04-04T02:52:15;2.17;;;1.40;;
30519;SDS011;17300;50.374;8.006;2023-04-04T02:54:42;1.50;;;1.10;;
30519;SDS011;17300;50.374;8.006;2023-04-04T02:57:08;1.93;;;1.10;;
30519;SDS011;17300;50.374;8.006;2023-04-04T02:59:35;3.07;;;1.17;;
30519;SDS011;17300;50.374;8.006;2023-04-04T03:02:02;1.63;;;1.33;;
30519;SDS011;17300;50.374;8.006;2023-04-04T03:04:28;1.53;;;1.17;;
30519;SDS011;17300;50.374;8.006;2023-04-04T03:06:57;1.43;;;1.10;;
30519;SDS011;17300;50.374;8.006;2023-04-04T03:09:24;2.03;;;1.10;;
30519;SDS011;17300;50.374;8.006;2023-04-04T03:11:50;2.73;;;1.50;;
30519;SDS011;17300;50.374;8.006;2023-04-04T03:14:17;1.93;;;1.20;;
30519;SDS011;17300;50.374;8.006;2023-04-04T03:16:44;3.23;;;1.20;;
30519;SDS011;17300;50.374;8.006;2023-04-04T03:19:11;1.77;;;1.50;;
30519;SDS011;17300;50.374;8.006;2023-04-04T03:21:37;2.73;;;1.23;;
30519;SDS011;17300;50.374;8.006;2023-04-04T03:24:06;2.37;;;1.30;;
30519;SDS011;17300;50.374;8.006;2023-04-04T03:26:32;1.73;;;1.30;;
30519;SDS011;17300;50.374;8.006;2023-04-04T03:28:59;3.00;;;1.73;;
30519;SDS011;17300;50.374;8.006;2023-04-04T03:31:28;2.20;;;1.63;;
30519;SDS011;17300;50.374;8.006;2023-04-04T03:33:55;2.53;;;1.50;;
30519;SDS011;17300;50.374;8.006;2023-04-04T03:36:21;2.37;;;1.60;;
30519;SDS011;17300;50.374;8.006;2023-04-04T03:38:48;3.30;;;1.57;;
30519;SDS011;17300;50.374;8.006;2023-04-04T03:41:16;2.47;;;1.80;;
30519;SDS011;17300;50.374;8.006;2023-04-04T03:43:43;2.10;;;1.40;;
30519;SDS011;17300;50.374;8.006;2023-04-04T03:46:10;1.90;;;1.60;;
30519;SDS011;17300;50.374;8.006;2023-04-04T03:48:36;2.00;;;1.50;;
30519;SDS011;17300;50.374;8.006;2023-04-04T03:51:03;2.60;;;1.60;;
30519;SDS011;17300;50.374;8.006;2023-04-04T03:53:30;1.90;;;1.57;;
30519;SDS011;17300;50.374;8.006;2023-04-04T03:55:58;2.07;;;1.50;;
30519;SDS011;17300;50.374;8.006;2023-04-04T03:58:26;2.30;;;1.40;;
30519;SDS011;17300;50.374;8.006;2023-04-04T04:00:54;2.13;;;1.40;;
30519;SDS011;17300;50.374;8.006;2023-04-04T04:03:20;1.20;;;1.10;;
30519;SDS011;17300;50.374;8.006;2023-04-04T04:05:47;1.30;;;1.20;;
30519;SDS011;17300;50.374;8.006;2023-04-04T04:08:14;1.93;;;1.30;;
30519;SDS011;17300;50.374;8.006;2023-04-04T04:10:40;1.47;;;1.20;;
30519;SDS011;17300;50.374;8.006;2023-04-04T04:13:07;1.80;;;1.40;;
30519;SDS011;17300;50.374;8.006;2023-04-04T04:15:35;1.50;;;1.40;;
30519;SDS011;17300;50.374;8.006;2023-04-04T04:18:02;1.93;;;1.43;;
30519;SDS011;17300;50.374;8.006;2023-04-04T04:20:29;3.47;;;1.87;;
30519;SDS011;17300;50.374;8.006;2023-04-04T04:22:55;2.33;;;1.60;;
30519;SDS011;17300;50.374;8.006;2023-04-04T04:25:22;2.80;;;1.57;;
30519;SDS011;17300;50.374;8.006;2023-04-04T04:27:49;3.27;;;1.80;;
30519;SDS011;17300;50.374;8.006;2023-04-04T04:30:15;2.80;;;1.67;;
30519;SDS011;17300;50.374;8.006;2023-04-04T04:32:43;2.87;;;1.60;;
30519;SDS011;17300;50.374;8.006;2023-04-04T04:35:10;2.33;;;1.70;;
30519;SDS011;17300;50.374;8.006;2023-04-04T04:37:37;1.37;;;1.27;;
30519;SDS011;17300;50.374;8.006;2023-04-04T04:40:04;2.13;;;1.63;;
30519;SDS011;17300;50.374;8.006;2023-04-04T04:42:31;2.63;;;1.53;;
30519;SDS011;17300;50.374;8.006;2023-04-04T04:44:58;2.60;;;1.57;;
30519;SDS011;17300;50.374;8.006;2023-04-04T04:47:24;2.90;;;1.40;;
30519;SDS011;17300;50.374;8.006;2023-04-04T04:49:52;3.50;;;1.57;;
30519;SDS011;17300;50.374;8.006;2023-04-04T04:52:19;2.53;;;1.43;;
30519;SDS011;17300;50.374;8.006;2023-04-04T04:54:46;3.10;;;1.60;;
30519;SDS011;17300;50.374;8.006;2023-04-04T04:57:13;2.80;;;1.60;;
30519;SDS011;17300;50.374;8.006;2023-04-04T04:59:41;2.73;;;1.60;;
30519;SDS011;17300;50.374;8.006;2023-04-04T05:02:07;3.13;;;1.80;;
30519;SDS011;17300;50.374;8.006;2023-04-04T05:04:34;1.93;;;1.40;;
30519;SDS011;17300;50.374;8.006;2023-04-04T05:07:02;3.33;;;1.80;;
30519;SDS011;17300;50.374;8.006;2023-04-04T05:09:29;1.83;;;1.60;;
30519;SDS011;17300;50.374;8.006;2023-04-04T05:11:55;3.33;;;1.70;;
30519;SDS011;17300;50.374;8.006;2023-04-04T05:14:22;2.77;;;1.83;;
30519;SDS011;17300;50.374;8.006;2023-04-04T05:16:49;1.57;;;1.40;;
30519;SDS011;17300;50.374;8.006;2023-04-04T05:19:16;1.67;;;1.57;;
30519;SDS011;17300;50.374;8.006;2023-04-04T05:21:43;2.03;;;1.53;;
30519;SDS011;17300;50.374;8.006;2023-04-04T05:24:11;3.27;;;2.70;;
30519;SDS011;17300;50.374;8.006;2023-04-04T05:26:38;5.00;;;3.33;;
30519;SDS011;17300;50.374;8.006;2023-04-04T05:29:05;5.47;;;3.53;;
30519;SDS011;17300;50.374;8.006;2023-04-04T05:31:32;5.00;;;3.00;;
30519;SDS011;17300;50.374;8.006;2023-04-04T05:33:58;3.73;;;2.63;;
30519;SDS011;17300;50.374;8.006;2023-04-04T05:36:31;3.53;;;2.70;;
30519;SDS011;17300;50.374;8.006;2023-04-04T05:38:58;3.97;;;3.00;;
30519;SDS011;17300;50.374;8.006;2023-04-04T05:41:26;3.80;;;2.80;;
30519;SDS011;17300;50.374;8.006;2023-04-04T05:43:53;3.97;;;3.13;;
30519;SDS011;17300;50.374;8.006;2023-04-04T05:46:20;3.43;;;2.60;;
30519;SDS011;17300;50.374;8.006;2023-04-04T05:48:46;3.47;;;2.63;;
30519;SDS011;17300;50.374;8.006;2023-04-04T05:51:14;3.67;;;3.03;;
30519;SDS011;17300;50.374;8.006;2023-04-04T05:53:40;3.80;;;2.43;;
30519;SDS011;17300;50.374;8.006;2023-04-04T05:56:09;3.40;;;2.70;;
30519;SDS011;17300;50.374;8.006;2023-04-04T05:58:37;3.33;;;2.50;;
30519;SDS011;17300;50.374;8.006;2023-04-04T06:01:05;3.47;;;2.37;;
30519;SDS011;17300;50.374;8.006;2023-04-04T06:03:32;4.03;;;2.73;;
30519;SDS011;17300;50.374;8.006;2023-04-04T06:05:59;3.53;;;2.33;;
30519;SDS011;17300;50.374;8.006;2023-04-04T06:08:28;2.97;;;2.57;;
30519;SDS011;17300;50.374;8.006;2023-04-04T06:10:55;3.53;;;2.57;;
30519;SDS011;17300;50.374;8.006;2023-04-04T06:13:21;5.93;;;2.80;;
30519;SDS011;17300;50.374;8.006;2023-04-04T06:15:50;3.87;;;3.37;;
30519;SDS011;17300;50.374;8.006;2023-04-04T06:18:16;5.47;;;3.90;;
30519;SDS011;17300;50.374;8.006;2023-04-04T06:20:43;4.57;;;3.63;;
30519;SDS011;17300;50.374;8.006;2023-04-04T06:23:10;4.83;;;4.00;;
30519;SDS011;17300;50.374;8.006;2023-04-04T06:25:36;7.13;;;4.00;;
30519;SDS011;17300;50.374;8.006;2023-04-04T06:28:03;5.10;;;3.83;;
30519;SDS011;17300;50.374;8.006;2023-04-04T06:30:33;4.37;;;3.27;;
30519;SDS011;17300;50.374;8.006;2023-04-04T06:33:02;3.93;;;2.80;;
30519;SDS011;17300;50.374;8.006;2023-04-04T06:35:30;5.43;;;3.10;;
30519;SDS011;17300;50.374;8.006;2023-04-04T06:37:56;3.43;;;2.53;;
30519;SDS011;17300;50.374;8.006;2023-04-04T06:40:23;2.67;;;2.30;;
30519;SDS011;17300;50.374;8.006;2023-04-04T06:42:50;4.13;;;2.50;;
30519;SDS011;17300;50.374;8.006;2023-04-04T06:45:19;2.73;;;2.10;;
30519;SDS011;17300;50.374;8.006;2023-04-04T06:47:45;2.23;;;1.97;;
30519;SDS011;17300;50.374;8.006;2023-04-04T06:50:15;3.03;;;1.90;;
30519;SDS011;17300;50.374;8.006;2023-04-04T06:52:42;1.70;;;1.60;;
30519;SDS011;17300;50.374;8.006;2023-04-04T06:55:09;1.97;;;1.70;;
30519;SDS011;17300;50.374;8.006;2023-04-04T06:57:37;1.70;;;1.60;;
30519;SDS011;17300;50.374;8.006;2023-04-04T07:00:04;2.10;;;1.80;;
30519;SDS011;17300;50.374;8.006;2023-04-04T07:02:31;2.57;;;1.80;;
30519;SDS011;17300;50.374;8.006;2023-04-04T07:04:58;2.33;;;1.63;;
30519;SDS011;17300;50.374;8.006;2023-04-04T07:07:26;2.87;;;1.40;;
30519;SDS011;17300;50.374;8.006;2023-04-04T07:09:54;1.80;;;1.60;;
30519;SDS011;17300;50.374;8.006;2023-04-04T07:12:20;1.77;;;1.48;;
30519;SDS011;17300;50.374;8.006;2023-04-04T07:14:47;1.52;;;1.42;;
30519;SDS011;17300;50.374;8.006;2023-04-04T07:17:14;1.63;;;1.50;;
30519;SDS011;17300;50.374;8.006;2023-04-04T07:19:40;1.42;;;1.20;;
30519;SDS011;17300;50.374;8.006;2023-04-04T07:22:07;1.35;;;1.25;;
30519;SDS011;17300;50.374;8.006;2023-04-04T07:24:35;1.48;;;1.27;;
30519;SDS011;17300;50.374;8.006;2023-04-04T07:27:02;1.73;;;1.25;;
30519;SDS011;17300;50.374;8.006;2023-04-04T07:29:29;1.40;;;1.30;;
30519;SDS011;17300;50.374;8.006;2023-04-04T07:31:55;1.60;;;1.50;;
30519;SDS011;17300;50.374;8.006;2023-04-04T07:34:22;2.33;;;1.40;;
30519;SDS011;17300;50.374;8.006;2023-04-04T07:36:49;2.20;;;1.35;;
30519;SDS011;17300;50.374;8.006;2023-04-04T07:39:17;2.85;;;1.60;;
30519;SDS011;17300;50.374;8.006;2023-04-04T07:41:45;1.70;;;1.60;;
30519;SDS011;17300;50.374;8.006;2023-04-04T07:44:12;2.33;;;1.70;;
30519;SDS011;17300;50.374;8.006;2023-04-04T07:46:39;1.60;;;1.48;;
30519;SDS011;17300;50.374;8.006;2023-04-04T07:49:06;2.00;;;1.30;;
30519;SDS011;17300;50.374;8.006;2023-04-04T07:51:34;1.33;;;1.20;;
30519;SDS011;17300;50.374;8.006;2023-04-04T07:54:01;2.40;;;1.45;;
30519;SDS011;17300;50.374;8.006;2023-04-04T07:56:28;1.77;;;1.40;;
30519;SDS011;17300;50.374;8.006;2023-04-04T07:58:56;1.48;;;1.20;;
30519;SDS011;17300;50.374;8.006;2023-04-04T08:01:22;1.50;;;1.35;;
30519;SDS011;17300;50.374;8.006;2023-04-04T08:03:49;1.80;;;1.38;;
30519;SDS011;17300;50.374;8.006;2023-04-04T08:06:17;1.70;;;1.33;;
30519;SDS011;17300;50.374;8.006;2023-04-04T08:08:44;1.45;;;1.35;;
30519;SDS011;17300;50.374;8.006;2023-04-04T08:11:12;1.30;;;1.20;;
30519;SDS011;17300;50.374;8.006;2023-04-04T08:13:39;1.42;;;1.30;;
30519;SDS011;17300;50.374;8.006;2023-04-04T08:16:07;1.52;;;1.38;;
30519;SDS011;17300;50.374;8.006;2023-04-04T08:18:34;1.58;;;1.48;;
30519;SDS011;17300;50.374;8.006;2023-04-04T08:21:00;2.58;;;1.40;;
30519;SDS011;17300;50.374;8.006;2023-04-04T08:23:27;1.40;;;1.30;;
30519;SDS011;17300;50.374;8.006;2023-04-04T08:25:55;2.08;;;1.38;;
30519;SDS011;17300;50.374;8.006;2023-04-04T08:28:23;1.48;;;1.38;;
30519;SDS011;17300;50.374;8.006;2023-04-04T08:30:51;1.30;;;1.20;;
30519;SDS011;17300;50.374;8.006;2023-04-04T08:33:21;1.20;;;1.08;;
30519;SDS011;17300;50.374;8.006;2023-04-04T08:35:49;1.40;;;1.00;;
30519;SDS011;17300;50.374;8.006;2023-04-04T08:38:15;1.50;;;0.90;;
30519;SDS011;17300;50.374;8.006;2023-04-04T08:40:44;1.05;;;0.95;;
30519;SDS011;17300;50.374;8.006;2023-04-04T08:43:14;1.33;;;1.15;;
30519;SDS011;17300;50.374;8.006;2023-04-04T08:45:41;0.80;;;0.80;;
30519;SDS011;17300;50.374;8.006;2023-04-04T08:48:12;1.27;;;1.00;;
30519;SDS011;17300;50.374;8.006;2023-04-04T08:50:41;1.23;;;1.08;;
30519;SDS011;17300;50.374;8.006;2023-04-04T08:53:09;1.20;;;1.10;;
30519;SDS011;17300;50.374;8.006;2023-04-04T08:55:36;1.27;;;1.10;;
30519;SDS011;17300;50.374;8.006;2023-04-04T08:58:03;1.30;;;1.20;;
30519;SDS011;17300;50.374;8.006;2023-04-04T09:00:30;2.25;;;1.27;;
30519;SDS011;17300;50.374;8.006;2023-04-04T09:02:59;1.23;;;1.13;;
30519;SDS011;17300;50.374;8.006;2023-04-04T09:05:34;0.95;;;0.90;;
30519;SDS011;17300;50.374;8.006;2023-04-04T09:08:03;1.15;;;1.05;;
30519;SDS011;17300;50.374;8.006;2023-04-04T09:10:31;1.30;;;1.20;;
30519;SDS011;17300;50.374;8.006;2023-04-04T09:12:59;1.17;;;1.08;;
30519;SDS011;17300;50.374;8.006;2023-04-04T09:15:31;1.75;;;1.27;;
30519;SDS011;17300;50.374;8.006;2023-04-04T09:17:59;2.15;;;1.30;;
30519;SDS011;17300;50.374;8.006;2023-04-04T09:20:36;1.25;;;1.15;;
30519;SDS011;17300;50.374;8.006;2023-04-04T09:23:06;1.23;;;1.13;;
30519;SDS011;17300;50.374;8.006;2023-04-04T09:25:34;1.52;;;1.33;;
30519;SDS011;17300;50.374;8.006;2023-04-04T09:28:01;1.17;;;1.08;;
30519;SDS011;17300;50.374;8.006;2023-04-04T09:30:29;1.52;;;1.05;;
30519;SDS011;17300;50.374;8.006;2023-04-04T09:32:59;1.25;;;1.15;;
30519;SDS011;17300;50.374;8.006;2023-04-04T09:35:27;1.42;;;1.30;;
30519;SDS011;17300;50.374;8.006;2023-04-04T09:37:54;1.20;;;1.10;;
30519;SDS011;17300;50.374;8.006;2023-04-04T09:40:23;1.05;;;1.05;;
30519;SDS011;17300;50.374;8.006;2023-04-04T09:42:54;1.08;;;1.00;;
30519;SDS011;17300;50.374;8.006;2023-04-04T09:45:25;1.35;;;1.20;;
30519;SDS011;17300;50.374;8.006;2023-04-04T09:47:52;1.48;;;1.38;;
30519;SDS011;17300;50.374;8.006;2023-04-04T09:50:22;1.27;;;1.17;;
30519;SDS011;17300;50.374;8.006;2023-04-04T09:52:53;1.40;;;1.30;;
30519;SDS011;17300;50.374;8.006;2023-04-04T09:55:23;1.02;;;1.00;;
30519;SDS011;17300;50.374;8.006;2023-04-04T09:57:57;1.30;;;1.20;;
30519;SDS011;17300;50.374;8.006;2023-04-04T10:00:26;1.30;;;1.20;;
30519;SDS011;17300;50.374;8.006;2023-04-04T10:02:54;1.30;;;1.10;;
30519;SDS011;17300;50.374;8.006;2023-04-04T10:05:23;1.13;;;1.10;;
30519;SDS011;17300;50.374;8.006;2023-04-04T10:07:51;1.20;;;1.10;;
30519;SDS011;17300;50.374;8.006;2023-04-04T10:10:18;1.25;;;1.10;;
30519;SDS011;17300;50.374;8.006;2023-04-04T10:12:51;1.48;;;1.38;;
30519;SDS011;17300;50.374;8.006;2023-04-04T10:15:21;1.30;;;1.20;;
30519;SDS011;17300;50.374;8.006;2023-04-04T10:17:48;1.30;;;1.20;;
30519;SDS011;17300;50.374;8.006;2023-04-04T10:20:25;1.23;;;1.08;;
30519;SDS011;17300;50.374;8.006;2023-04-04T10:22:53;1.33;;;1.23;;
30519;SDS011;17300;50.374;8.006;2023-04-04T10:25:19;1.10;;;1.00;;
30519;SDS011;17300;50.374;8.006;2023-04-04T10:27:46;1.38;;;1.13;;
30519;SDS011;17300;50.374;8.006;2023-04-04T10:30:17;1.52;;;0.90;;
30519;SDS011;17300;50.374;8.006;2023-04-04T10:32:49;1.40;;;1.30;;
30519;SDS011;17300;50.374;8.006;2023-04-04T10:35:22;1.17;;;1.08;;
30519;SDS011;17300;50.374;8.006;2023-04-04T10:37:56;1.25;;;1.15;;
30519;SDS011;17300;50.374;8.006;2023-04-04T10:40:24;1.30;;;1.20;;
30519;SDS011;17300;50.374;8.006;2023-04-04T10:42:57;1.20;;;1.10;;
30519;SDS011;17300;50.374;8.006;2023-04-04T10:45:29;1.50;;;1.15;;
30519;SDS011;17300;50.374;8.006;2023-04-04T10:47:57;1.13;;;1.10;;
30519;SDS011;17300;50.374;8.006;2023-04-04T10:50:24;1.15;;;1.05;;
30519;SDS011;17300;50.374;8.006;2023-04-04T10:52:52;1.33;;;1.08;;
30519;SDS011;17300;50.374;8.006;2023-04-04T10:55:21;1.50;;;1.10;;
30519;SDS011;17300;50.374;8.006;2023-04-04T10:57:49;1.60;;;1.27;;
30519;SDS011;17300;50.374;8.006;2023-04-04T11:14:02;1.45;;;1.10;;
30519;SDS011;17300;50.374;8.006;2023-04-04T11:20:53;0.80;;;0.80;;
30519;SDS011;17300;50.374;8.006;2023-04-04T11:23:22;1.20;;;1.10;;
30519;SDS011;17300;50.374;8.006;2023-04-04T11:25:51;1.10;;;0.90;;
30519;SDS011;17300;50.374;8.006;2023-04-04T11:28:24;1.40;;;1.10;;
30519;SDS011;17300;50.374;8.006;2023-04-04T11:33:53;1.20;;;0.98;;
30519;SDS011;17300;50.374;8.006;2023-04-04T11:39:26;1.20;;;1.10;;
30519;SDS011;17300;50.374;8.006;2023-04-04T11:41:55;1.40;;;1.10;;
30519;SDS011;17300;50.374;8.006;2023-04-04T11:44:27;1.35;;;1.25;;
30519;SDS011;17300;50.374;8.006;2023-04-04T11:46:59;1.55;;;1.40;;
30519;SDS011;17300;50.374;8.006;2023-04-04T11:49:28;1.13;;;1.02;;
30519;SDS011;17300;50.374;8.006;2023-04-04T11:52:02;1.00;;;0.98;;
30519;SDS011;17300;50.374;8.006;2023-04-04T11:54:29;1.20;;;1.10;;
30519;SDS011;17300;50.374;8.006;2023-04-04T11:56:56;1.37;;;1.20;;
30519;SDS011;17300;50.374;8.006;2023-04-04T11:59:24;2.00;;;1.17;;
30519;SDS011;17300;50.374;8.006;2023-04-04T12:01:50;1.17;;;0.90;;
30519;SDS011;17300;50.374;8.006;2023-04-04T12:04:19;1.67;;;1.07;;
30519;SDS011;17300;50.374;8.006;2023-04-04T12:06:47;1.83;;;1.10;;
30519;SDS011;17300;50.374;8.006;2023-04-04T12:09:16;1.57;;;1.23;;
30519;SDS011;17300;50.374;8.006;2023-04-04T12:11:44;1.40;;;1.23;;
30519;SDS011;17300;50.374;8.006;2023-04-04T12:14:14;1.20;;;1.10;;
30519;SDS011;17300;50.374;8.006;2023-04-04T12:16:42;1.20;;;1.07;;
30519;SDS011;17300;50.374;8.006;2023-04-04T12:19:10;1.27;;;1.13;;
30519;SDS011;17300;50.374;8.006;2023-04-04T12:21:38;2.47;;;1.40;;
30519;SDS011;17300;50.374;8.006;2023-04-04T12:24:05;1.20;;;1.10;;
30519;SDS011;17300;50.374;8.006;2023-04-04T12:26:33;1.07;;;1.00;;
30519;SDS011;17300;50.374;8.006;2023-04-04T12:29:01;2.07;;;1.43;;
30519;SDS011;17300;50.374;8.006;2023-04-04T12:31:29;1.77;;;1.20;;
30519;SDS011;17300;50.374;8.006;2023-04-04T12:33:57;2.30;;;1.20;;
30519;SDS011;17300;50.374;8.006;2023-04-04T12:36:25;1.27;;;1.17;;
30519;SDS011;17300;50.374;8.006;2023-04-04T12:38:57;1.20;;;1.10;;
30519;SDS011;17300;50.374;8.006;2023-04-04T12:41:25;2.30;;;1.50;;
30519;SDS011;17300;50.374;8.006;2023-04-04T12:43:58;1.33;;;1.23;;
30519;SDS011;17300;50.374;8.006;2023-04-04T12:46:27;1.20;;;1.10;;
30519;SDS011;17300;50.374;8.006;2023-04-04T12:48:54;1.10;;;1.00;;
30519;SDS011;17300;50.374;8.006;2023-04-04T12:51:20;2.13;;;0.87;;
30519;SDS011;17300;50.374;8.006;2023-04-04T12:53:58;1.40;;;1.10;;
30519;SDS011;17300;50.374;8.006;2023-04-04T12:56:24;1.30;;;1.07;;
30519;SDS011;17300;50.374;8.006;2023-04-04T12:58:52;1.00;;;0.90;;
30519;SDS011;17300;50.374;8.006;2023-04-04T13:01:25;3.10;;;1.30;;
30519;SDS011;17300;50.374;8.006;2023-04-04T13:03:52;1.40;;;1.30;;
30519;SDS011;17300;50.374;8.006;2023-04-04T13:06:18;1.30;;;1.20;;
30519;SDS011;17300;50.374;8.006;2023-04-04T13:08:49;1.20;;;1.10;;
30519;SDS011;17300;50.374;8.006;2023-04-04T13:11:18;1.23;;;1.13;;
30519;SDS011;17300;50.374;8.006;2023-04-04T13:13:45;1.20;;;1.10;;
30519;SDS011;17300;50.374;8.006;2023-04-04T13:16:27;1.40;;;1.27;;
30519;SDS011;17300;50.374;8.006;2023-04-04T13:18:55;1.90;;;1.30;;
30519;SDS011;17300;50.374;8.006;2023-04-04T13:21:22;1.17;;;1.07;;
30519;SDS011;17300;50.374;8.006;2023-04-04T13:23:50;1.30;;;1.10;;
30519;SDS011;17300;50.374;8.006;2023-04-04T13:26:18;1.50;;;1.20;;
30519;SDS011;17300;50.374;8.006;2023-04-04T13:28:45;1.17;;;1.10;;
30519;SDS011;17300;50.374;8.006;2023-04-04T13:31:12;1.73;;;1.60;;
30519;SDS011;17300;50.374;8.006;2023-04-04T13:33:39;1.60;;;1.20;;
30519;SDS011;17300;50.374;8.006;2023-04-04T13:36:07;1.27;;;1.17;;
30519;SDS011;17300;50.374;8.006;2023-04-04T13:38:34;1.63;;;1.20;;
30519;SDS011;17300;50.374;8.006;2023-04-04T13:41:01;1.20;;;1.10;;
30519;SDS011;17300;50.374;8.006;2023-04-04T13:43:29;1.73;;;1.20;;
30519;SDS011;17300;50.374;8.006;2023-04-04T13:45:56;1.20;;;1.10;;
30519;SDS011;17300;50.374;8.006;2023-04-04T13:48:22;1.23;;;1.10;;
30519;SDS011;17300;50.374;8.006;2023-04-04T13:50:50;1.30;;;1.20;;
30519;SDS011;17300;50.374;8.006;2023-04-04T13:53:19;1.20;;;1.10;;
30519;SDS011;17300;50.374;8.006;2023-04-04T13:55:45;1.27;;;1.17;;
30519;SDS011;17300;50.374;8.006;2023-04-04T13:58:12;1.17;;;1.07;;
30519;SDS011;17300;50.374;8.006;2023-04-04T14:00:45;0.90;;;0.90;;
30519;SDS011;17300;50.374;8.006;2023-04-04T14:03:13;2.47;;;1.30;;
30519;SDS011;17300;50.374;8.006;2023-04-04T14:05:40;1.50;;;1.30;;
30519;SDS011;17300;50.374;8.006;2023-04-04T14:08:06;1.40;;;1.30;;
30519;SDS011;17300;50.374;8.006;2023-04-04T14:10:33;1.57;;;1.10;;
30519;SDS011;17300;50.374;8.006;2023-04-04T14:13:00;1.60;;;1.20;;
30519;SDS011;17300;50.374;8.006;2023-04-04T14:15:27;1.37;;;1.23;;
30519;SDS011;17300;50.374;8.006;2023-04-04T14:17:55;1.50;;;1.40;;
30519;SDS011;17300;50.374;8.006;2023-04-04T14:20:22;1.20;;;1.20;;
30519;SDS011;17300;50.374;8.006;2023-04-04T14:22:49;1.53;;;1.30;;
30519;SDS011;17300;50.374;8.006;2023-04-04T14:25:15;1.30;;;1.20;;
30519;SDS011;17300;50.374;8.006;2023-04-04T14:27:42;1.70;;;1.37;;
30519;SDS011;17300;50.374;8.006;2023-04-04T14:30:09;1.40;;;1.30;;
30519;SDS011;17300;50.374;8.006;2023-04-04T14:32:36;1.40;;;1.30;;
30519;SDS011;17300;50.374;8.006;2023-04-04T14:35:04;1.67;;;1.57;;
30519;SDS011;17300;50.374;8.006;2023-04-04T14:37:31;1.73;;;1.33;;
30519;SDS011;17300;50.374;8.006;2023-04-04T14:39:58;1.73;;;1.33;;
30519;SDS011;17300;50.374;8.006;2023-04-04T14:42:25;1.37;;;1.23;;
30519;SDS011;17300;50.374;8.006;2023-04-04T14:44:51;1.97;;;1.40;;
30519;SDS011;17300;50.374;8.006;2023-04-04T14:47:18;1.50;;;1.40;;
30519;SDS011;17300;50.374;8.006;2023-04-04T14:49:45;1.40;;;1.30;;
30519;SDS011;17300;50.374;8.006;2023-04-04T14:52:13;1.23;;;1.13;;
30519;SDS011;17300;50.374;8.006;2023-04-04T14:54:39;6.03;;;1.40;;
30519;SDS011;17300;50.374;8.006;2023-04-04T14:57:06;1.30;;;1.20;;
30519;SDS011;17300;50.374;8.006;2023-04-04T14:59:32;1.70;;;1.43;;
30519;SDS011;17300;50.374;8.006;2023-04-04T15:01:59;1.50;;;1.40;;
30519;SDS011;17300;50.374;8.006;2023-04-04T15:04:26;1.20;;;1.10;;
30519;SDS011;17300;50.374;8.006;2023-04-04T15:06:52;1.57;;;1.37;;
30519;SDS011;17300;50.374;8.006;2023-04-04T15:09:25;2.47;;;1.50;;
30519;SDS011;17300;50.374;8.006;2023-04-04T15:11:53;1.40;;;1.30;;
30519;SDS011;17300;50.374;8.006;2023-04-04T15:14:20;1.47;;;1.37;;
30519;SDS011;17300;50.374;8.006;2023-04-04T15:16:47;1.73;;;1.33;;